createdAt,value
2023-05-13T00:01:09.912Z,12.38
2023-05-13T00:03:59.127Z,13.43
2023-05-13T00:06:28.693Z,18.88
2023-05-13T00:08:56.783Z,12.00
2023-05-13T00:11:26.430Z,14.23
2023-05-13T00:13:54.824Z,10.93
2023-05-13T00:16:27.506Z,12.00
2023-05-13T00:18:59.601Z,12.73
2023-05-13T00:21:28.597Z,12.38
2023-05-13T00:24:18.032Z,11.65
2023-05-13T00:26:47.980Z,11.63
2023-05-13T00:29:17.717Z,10.55
2023-05-13T00:31:46.112Z,10.27
2023-05-13T00:34:14.704Z,12.23
2023-05-13T00:36:48.792Z,8.55
2023-05-13T00:39:18.735Z,12.20
2023-05-13T00:41:48.598Z,11.20
2023-05-13T00:44:17.008Z,10.07
2023-05-13T00:46:46.157Z,16.20
2023-05-13T00:49:19.158Z,11.18
2023-05-13T00:51:48.676Z,10.40
2023-05-13T00:54:16.842Z,9.45
2023-05-13T00:56:45.536Z,9.02
2023-05-13T00:59:16.303Z,9.68
2023-05-13T01:01:49.336Z,11.85
2023-05-13T01:04:27.583Z,8.27
2023-05-13T01:07:05.029Z,11.52
2023-05-13T01:09:46.749Z,13.57
2023-05-13T01:12:21.985Z,10.48
2023-05-13T01:14:59.608Z,11.82
2023-05-13T01:17:36.201Z,10.20
2023-05-13T01:20:06.153Z,8.63
2023-05-13T01:22:35.946Z,7.80
2023-05-13T01:25:06.749Z,9.93
2023-05-13T01:27:37.434Z,9.68
2023-05-13T01:30:11.108Z,10.93
2023-05-13T01:32:40.309Z,7.07
2023-05-13T01:35:10.251Z,7.53
2023-05-13T01:37:40.734Z,9.18
2023-05-13T01:40:24.201Z,8.07
2023-05-13T01:43:00.960Z,7.90
2023-05-13T01:45:30.525Z,9.40
2023-05-13T01:47:59.232Z,8.90
2023-05-13T01:50:27.536Z,8.88
2023-05-13T01:52:58.502Z,6.65
2023-05-13T01:55:46.753Z,6.93
2023-05-13T01:58:14.913Z,6.30
2023-05-13T02:00:43.035Z,12.73
2023-05-13T02:03:12.964Z,7.57
2023-05-13T02:05:43.140Z,11.30
2023-05-13T02:08:15.027Z,10.65
2023-05-13T02:10:45.051Z,10.30
2023-05-13T02:13:13.437Z,6.07
2023-05-13T02:15:42.865Z,7.63
2023-05-13T02:18:31.665Z,8.30
2023-05-13T02:21:00.885Z,14.88
2023-05-13T02:23:30.412Z,8.93
2023-05-13T02:25:58.597Z,13.80
2023-05-13T02:28:27.051Z,11.75
2023-05-13T02:30:55.183Z,10.65
2023-05-13T02:33:23.614Z,11.60
2023-05-13T02:35:53.014Z,9.90
2023-05-13T02:38:23.750Z,15.15
2023-05-13T02:40:54.416Z,12.27
2023-05-13T02:43:23.843Z,12.35
2023-05-13T02:45:52.383Z,10.77
2023-05-13T02:48:21.249Z,12.45
2023-05-13T02:50:50.699Z,13.27
2023-05-13T02:53:18.813Z,12.13
2023-05-13T02:55:46.979Z,13.38
2023-05-13T02:58:16.797Z,12.68
2023-05-13T03:00:45.457Z,10.52
2023-05-13T03:03:18.174Z,17.13
2023-05-13T03:05:46.619Z,14.27
2023-05-13T03:08:14.746Z,11.48
2023-05-13T03:10:43.125Z,16.15
2023-05-13T03:13:11.590Z,15.90
2023-05-13T03:15:44.367Z,17.83
2023-05-13T03:18:34.540Z,12.25
2023-05-13T03:21:22.969Z,12.35
2023-05-13T03:23:51.715Z,14.23
2023-05-13T03:26:22.063Z,18.25
2023-05-13T03:28:50.780Z,18.50
2023-05-13T03:31:20.805Z,25.00
2023-05-13T03:33:49.209Z,18.40
2023-05-13T03:36:17.596Z,21.02
2023-05-13T03:38:45.741Z,18.23
2023-05-13T03:41:17.475Z,20.17
2023-05-13T03:43:48.013Z,17.48
2023-05-13T03:46:16.488Z,20.60
2023-05-13T03:48:47.408Z,24.08
2023-05-13T03:51:15.821Z,21.55
2023-05-13T03:53:44.176Z,22.35
2023-05-13T03:56:14.812Z,23.25
2023-05-13T03:58:43.095Z,20.20
2023-05-13T04:01:12.784Z,20.45
2023-05-13T04:03:41.577Z,22.40
2023-05-13T04:06:14.968Z,25.10
2023-05-13T04:08:43.835Z,24.77
2023-05-13T04:11:11.949Z,26.77
2023-05-13T04:13:40.552Z,25.67
2023-05-13T04:16:11.665Z,22.73
2023-05-13T04:18:39.761Z,19.83
2023-05-13T04:21:10.427Z,24.60
2023-05-13T04:23:41.107Z,20.23
2023-05-13T04:26:09.633Z,30.27
2023-05-13T04:28:40.158Z,25.48
2023-05-13T04:31:08.212Z,25.97
2023-05-13T04:33:36.633Z,30.00
2023-05-13T04:36:05.310Z,22.42
2023-05-13T04:38:33.984Z,23.58
2023-05-13T04:41:03.389Z,21.52
2023-05-13T04:43:32.079Z,29.25
2023-05-13T04:46:02.653Z,23.35
2023-05-13T04:48:35.278Z,27.25
2023-05-13T04:51:03.874Z,22.00
2023-05-13T04:53:32.459Z,24.27
2023-05-13T04:56:01.743Z,21.75
2023-05-13T04:58:34.016Z,25.90
2023-05-13T05:01:03.929Z,28.97
2023-05-13T05:03:33.061Z,22.50
2023-05-13T05:06:02.183Z,19.13
2023-05-13T05:08:50.382Z,24.77
2023-05-13T05:11:18.435Z,27.10
2023-05-13T05:13:48.068Z,25.15
2023-05-13T05:16:16.531Z,23.17
2023-05-13T05:18:44.773Z,19.80
2023-05-13T05:21:14.405Z,19.55
2023-05-13T05:23:42.702Z,21.17
2023-05-13T05:26:14.296Z,24.65
2023-05-13T05:28:44.524Z,26.30
2023-05-13T05:31:21.604Z,24.07
2023-05-13T05:33:50.676Z,26.00
2023-05-13T05:36:18.782Z,17.58
2023-05-13T05:38:47.398Z,24.30
2023-05-13T05:41:16.398Z,20.60
2023-05-13T05:44:07.343Z,22.02
2023-05-13T05:46:37.170Z,24.33
2023-05-13T05:49:05.568Z,21.17
2023-05-13T05:51:42.127Z,26.50
2023-05-13T05:54:10.830Z,24.02
2023-05-13T05:56:38.857Z,21.08
2023-05-13T05:59:06.930Z,22.88
2023-05-13T06:01:39.552Z,19.13
2023-05-13T06:04:07.613Z,22.67
2023-05-13T06:06:37.556Z,18.90
2023-05-13T06:09:05.807Z,24.35
2023-05-13T06:11:36.302Z,15.37
2023-05-13T06:14:05.530Z,16.00
2023-05-13T06:16:33.810Z,18.42
2023-05-13T06:19:03.533Z,19.13
2023-05-13T06:21:32.232Z,16.40
2023-05-13T06:24:00.933Z,22.55
2023-05-13T06:26:29.820Z,20.20
2023-05-13T06:28:58.039Z,17.90
2023-05-13T06:31:26.225Z,19.70
2023-05-13T06:33:54.183Z,18.40
2023-05-13T06:36:23.461Z,13.02
2023-05-13T06:38:51.482Z,14.45
2023-05-13T06:41:19.531Z,19.85
2023-05-13T06:43:48.835Z,20.30
2023-05-13T06:46:17.256Z,12.25
2023-05-13T06:48:45.320Z,19.58
2023-05-13T06:51:17.271Z,15.55
2023-05-13T06:53:47.263Z,17.08
2023-05-13T06:56:15.234Z,15.23
2023-05-13T06:58:44.903Z,16.42
2023-05-13T07:01:12.940Z,17.00
2023-05-13T07:03:40.997Z,12.90
2023-05-13T07:06:10.092Z,16.63
2023-05-13T07:08:38.098Z,16.58
2023-05-13T07:11:07.618Z,13.13
2023-05-13T07:13:38.015Z,13.85
2023-05-13T07:16:06.615Z,14.80
2023-05-13T07:18:35.190Z,13.85
2023-05-13T07:21:05.090Z,13.07
2023-05-13T07:23:33.323Z,16.73
2023-05-13T07:26:01.641Z,11.95
2023-05-13T07:28:31.072Z,14.15
2023-05-13T07:31:00.627Z,15.32
2023-05-13T07:33:29.405Z,22.33
2023-05-13T07:35:57.519Z,18.55
2023-05-13T07:38:25.697Z,20.30
2023-05-13T07:40:54.155Z,14.38
2023-05-13T07:43:23.975Z,18.25
2023-05-13T07:45:53.710Z,10.55
2023-05-13T07:48:22.302Z,12.88
2023-05-13T07:50:50.310Z,15.88
2023-05-13T07:53:19.743Z,17.27
2023-05-13T07:55:48.070Z,15.20
2023-05-13T07:58:16.184Z,15.70
2023-05-13T08:00:44.216Z,12.27
2023-05-13T08:03:13.829Z,16.90
2023-05-13T08:05:41.927Z,14.10
2023-05-13T08:08:10.032Z,19.60
2023-05-13T08:10:37.973Z,21.73
2023-05-13T08:13:05.995Z,13.60
2023-05-13T08:15:33.967Z,15.02
2023-05-13T08:18:01.951Z,13.25
2023-05-13T08:20:31.369Z,12.52
2023-05-13T08:23:01.120Z,13.13
2023-05-13T08:25:29.357Z,16.50
2023-05-13T08:27:58.163Z,16.75
2023-05-13T08:30:26.129Z,12.55
2023-05-13T08:32:54.294Z,12.10
2023-05-13T08:35:22.858Z,15.05
2023-05-13T08:37:52.324Z,11.00
2023-05-13T08:40:21.164Z,15.90
2023-05-13T08:42:51.788Z,11.93
2023-05-13T08:45:23.853Z,14.70
2023-05-13T08:47:54.621Z,13.85
2023-05-13T08:50:23.291Z,18.98
2023-05-13T08:52:54.472Z,17.83
2023-05-13T08:55:24.148Z,13.52
2023-05-13T08:57:52.656Z,18.75
2023-05-13T09:00:21.690Z,15.45
2023-05-13T09:02:50.999Z,16.33
2023-05-13T09:05:20.205Z,15.40
2023-05-13T09:07:50.668Z,12.02
2023-05-13T09:10:21.298Z,14.38
2023-05-13T09:12:51.965Z,14.27
2023-05-13T09:15:21.527Z,15.13
2023-05-13T09:17:52.605Z,18.60
2023-05-13T09:20:22.579Z,16.42
2023-05-13T09:22:52.131Z,16.48
2023-05-13T09:25:23.990Z,13.30
2023-05-13T09:27:57.742Z,17.45
2023-05-13T09:30:26.578Z,18.98
2023-05-13T09:33:10.637Z,15.43
2023-05-13T09:35:39.764Z,17.73
2023-05-13T09:38:15.956Z,18.95
2023-05-13T09:40:51.706Z,16.17
2023-05-13T09:43:21.130Z,18.35
2023-05-13T09:45:49.378Z,14.65
2023-05-13T09:48:17.524Z,17.60
2023-05-13T09:50:49.840Z,13.68
2023-05-13T09:53:19.117Z,20.63
2023-05-13T09:55:49.112Z,16.67
2023-05-13T09:58:17.685Z,23.00
2023-05-13T10:00:46.333Z,18.10
2023-05-13T10:03:15.054Z,22.27
2023-05-13T10:05:43.781Z,19.48
2023-05-13T10:08:16.589Z,14.55
2023-05-13T10:10:46.660Z,17.88
2023-05-13T10:13:17.989Z,16.00
2023-05-13T10:15:51.511Z,19.98
2023-05-13T10:18:21.490Z,19.77
2023-05-13T10:20:53.777Z,21.48
2023-05-13T10:23:23.863Z,15.13
2023-05-13T10:25:53.156Z,15.32
2023-05-13T10:28:22.876Z,19.42
2023-05-13T10:30:51.664Z,16.80
2023-05-13T10:33:20.065Z,16.60
2023-05-13T10:36:12.181Z,12.23
2023-05-13T10:38:54.376Z,16.35
2023-05-13T10:41:56.517Z,24.88
2023-05-13T10:44:26.036Z,19.17
2023-05-13T10:46:54.204Z,21.10
2023-05-13T10:49:26.296Z,19.33
2023-05-13T10:51:54.364Z,18.80
2023-05-13T10:54:24.849Z,25.38
2023-05-13T10:56:58.519Z,15.00
2023-05-13T10:59:30.672Z,13.75
2023-05-13T11:02:02.090Z,17.75
2023-05-13T11:04:31.112Z,16.42
2023-05-13T11:07:16.768Z,18.67
2023-05-13T11:09:51.492Z,14.65
2023-05-13T11:12:19.676Z,14.80
2023-05-13T11:14:51.346Z,12.65
2023-05-13T11:17:23.686Z,12.68
2023-05-13T11:19:52.477Z,17.30
2023-05-13T11:22:23.011Z,16.88
2023-05-13T11:25:20.157Z,22.85
2023-05-13T11:27:48.532Z,17.25
2023-05-13T11:30:26.872Z,18.10
2023-05-13T11:32:56.798Z,13.93
2023-05-13T11:35:26.289Z,13.00
2023-05-13T11:37:54.372Z,18.33
2023-05-13T11:40:26.576Z,13.80
2023-05-13T11:42:56.838Z,20.63
2023-05-13T11:45:29.351Z,18.00
2023-05-13T11:47:58.446Z,17.88
2023-05-13T11:50:29.972Z,14.70
2023-05-13T11:52:59.601Z,14.43
2023-05-13T11:55:29.078Z,14.68
2023-05-13T11:57:57.816Z,13.45
2023-05-13T12:00:28.001Z,13.48
2023-05-13T12:02:56.921Z,19.90
2023-05-13T12:05:25.521Z,18.25
2023-05-13T12:07:57.220Z,15.35
2023-05-13T12:10:25.502Z,16.98
2023-05-13T12:12:54.140Z,19.85
2023-05-13T12:15:23.467Z,16.45
2023-05-13T12:17:53.550Z,18.73
2023-05-13T12:20:23.158Z,14.88
2023-05-13T12:22:53.489Z,16.38
2023-05-13T12:25:42.156Z,12.00
2023-05-13T12:28:12.293Z,14.43
2023-05-13T12:30:41.779Z,16.27
2023-05-13T12:33:16.791Z,16.52
2023-05-13T12:35:45.833Z,15.02
2023-05-13T12:38:18.337Z,18.55
2023-05-13T12:40:47.532Z,16.52
2023-05-13T12:43:17.303Z,22.08
2023-05-13T12:45:46.485Z,15.43
2023-05-13T12:48:16.878Z,19.48
2023-05-13T12:50:45.106Z,14.75
2023-05-13T12:53:13.412Z,13.65
2023-05-13T12:55:41.684Z,13.05
2023-05-13T12:58:12.181Z,9.45
2023-05-13T13:00:40.391Z,18.13
2023-05-13T13:03:11.157Z,11.82
2023-05-13T13:05:40.498Z,14.07
2023-05-13T13:08:08.502Z,15.05
2023-05-13T13:10:36.505Z,16.27
2023-05-13T13:13:04.471Z,13.40
2023-05-13T13:15:33.476Z,11.35
2023-05-13T13:18:01.592Z,13.02
2023-05-13T13:20:29.695Z,9.68
2023-05-13T13:22:59.801Z,13.68
2023-05-13T13:25:29.082Z,15.43
2023-05-13T13:27:57.186Z,13.32
2023-05-13T13:30:26.193Z,12.70
2023-05-13T13:32:54.320Z,14.00
2023-05-13T13:35:22.855Z,14.40
2023-05-13T13:37:51.107Z,12.02
2023-05-13T13:40:21.240Z,14.15
2023-05-13T13:42:49.501Z,19.63
2023-05-13T13:45:17.481Z,12.50
2023-05-13T13:47:45.561Z,14.70
2023-05-13T13:50:31.757Z,12.77
2023-05-13T13:53:00.791Z,17.85
2023-05-13T13:55:30.197Z,14.32
2023-05-13T13:57:58.152Z,15.55
2023-05-13T14:00:26.410Z,11.90
2023-05-13T14:02:55.411Z,14.40
2023-05-13T14:05:23.446Z,12.38
2023-05-13T14:07:54.020Z,14.00
2023-05-13T14:10:22.744Z,14.50
2023-05-13T14:12:53.713Z,12.82
2023-05-13T14:15:21.909Z,11.48
2023-05-13T14:17:50.036Z,13.38
2023-05-13T14:20:20.461Z,17.73
2023-05-13T14:22:48.667Z,13.70
2023-05-13T14:25:18.054Z,12.93
2023-05-13T14:27:46.360Z,15.20
2023-05-13T14:30:16.071Z,16.40
2023-05-13T14:32:45.309Z,15.00
2023-05-13T14:35:13.615Z,14.05
2023-05-13T14:37:44.313Z,17.27
2023-05-13T14:40:12.768Z,17.25
2023-05-13T14:42:40.896Z,16.60
2023-05-13T14:45:13.533Z,13.13
2023-05-13T14:47:45.314Z,13.93
2023-05-13T14:50:15.167Z,15.45
2023-05-13T14:52:43.547Z,15.90
2023-05-13T14:55:12.025Z,33.78
2023-05-13T14:57:41.380Z,21.05
2023-05-13T15:00:11.243Z,16.40
2023-05-13T15:02:39.439Z,16.75
2023-05-13T15:05:09.731Z,14.82
2023-05-13T15:07:37.735Z,29.27
2023-05-13T15:10:07.524Z,15.20
2023-05-13T15:12:35.808Z,31.77
2023-05-13T15:15:04.391Z,31.85
2023-05-13T15:17:32.527Z,19.10
2023-05-13T15:20:00.806Z,17.52
2023-05-13T15:22:34.172Z,18.10
2023-05-13T15:25:02.462Z,16.83
2023-05-13T15:27:30.467Z,16.02
2023-05-13T15:29:58.637Z,15.25
2023-05-13T15:32:26.957Z,16.60
2023-05-13T15:34:55.044Z,13.75
2023-05-13T15:37:23.076Z,14.27
2023-05-13T15:39:52.463Z,14.65
2023-05-13T15:42:21.304Z,12.55
2023-05-13T15:44:49.452Z,13.13
2023-05-13T15:47:17.702Z,12.07
2023-05-13T15:49:45.908Z,16.05
2023-05-13T15:52:16.731Z,15.20
2023-05-13T15:54:44.798Z,13.85
2023-05-13T15:57:18.416Z,15.63
2023-05-13T15:59:46.522Z,23.85
2023-05-13T16:02:14.559Z,20.92
2023-05-13T16:04:42.627Z,16.60
2023-05-13T16:07:11.034Z,15.40
2023-05-13T16:09:39.176Z,12.02
2023-05-13T16:12:08.144Z,13.57
2023-05-13T16:14:37.978Z,14.35
2023-05-13T16:17:06.570Z,15.93
2023-05-13T16:19:34.558Z,17.58
2023-05-13T16:22:25.688Z,18.90
2023-05-13T16:24:53.661Z,15.73
2023-05-13T16:27:21.792Z,17.23
2023-05-13T16:29:52.243Z,11.40
2023-05-13T16:32:20.161Z,15.13
2023-05-13T16:34:48.081Z,16.05
2023-05-13T16:37:16.130Z,14.55
2023-05-13T16:39:46.294Z,13.82
2023-05-13T16:42:14.249Z,14.25
2023-05-13T16:44:42.188Z,18.13
2023-05-13T16:47:11.626Z,11.57
2023-05-13T16:49:39.898Z,17.25
2023-05-13T16:52:08.442Z,19.48
2023-05-13T16:54:36.636Z,16.35
2023-05-13T16:57:04.801Z,13.65
2023-05-13T16:59:33.684Z,15.50
2023-05-13T17:02:03.285Z,14.95
2023-05-13T17:04:33.147Z,14.20
2023-05-13T17:07:01.191Z,16.08
2023-05-13T17:09:31.290Z,13.77
2023-05-13T17:11:59.471Z,17.13
2023-05-13T17:14:28.749Z,13.13
2023-05-13T17:16:57.024Z,14.85
2023-05-13T17:19:25.225Z,16.40
2023-05-13T17:21:54.523Z,16.52
2023-05-13T17:24:23.068Z,13.75
2023-05-13T17:26:51.447Z,14.02
2023-05-13T17:29:19.456Z,14.77
2023-05-13T17:31:48.236Z,17.85
2023-05-13T17:34:16.295Z,17.15
2023-05-13T17:36:44.251Z,18.52
2023-05-13T17:39:13.896Z,17.25
2023-05-13T17:41:41.949Z,17.90
2023-05-13T17:44:10.078Z,18.95
2023-05-13T17:46:38.041Z,15.32
2023-05-13T17:49:06.240Z,23.42
2023-05-13T17:51:36.690Z,17.92
2023-05-13T17:54:05.330Z,16.42
2023-05-13T17:56:34.759Z,22.17
2023-05-13T17:59:03.306Z,21.95
2023-05-13T18:01:31.335Z,17.25
2023-05-13T18:03:59.481Z,18.35
2023-05-13T18:06:27.514Z,20.60
2023-05-13T18:08:55.763Z,19.33
2023-05-13T18:11:23.838Z,19.80
2023-05-13T18:13:53.709Z,15.20
2023-05-13T18:16:28.280Z,20.05
2023-05-13T18:18:56.345Z,19.20
2023-05-13T18:21:25.190Z,17.65
2023-05-13T18:23:53.754Z,19.25
2023-05-13T18:26:23.125Z,19.70
2023-05-13T18:28:52.379Z,19.35
2023-05-13T18:31:22.399Z,14.05
2023-05-13T18:33:51.580Z,18.70
2023-05-13T18:36:19.887Z,17.85
2023-05-13T18:38:48.176Z,19.77
2023-05-13T18:41:16.570Z,20.92
2023-05-13T18:43:45.116Z,17.67
2023-05-13T18:46:13.465Z,24.25
2023-05-13T18:49:08.250Z,14.65
2023-05-13T18:51:36.667Z,15.30
2023-05-13T18:54:06.315Z,16.67
2023-05-13T18:56:37.279Z,21.98
2023-05-13T18:59:08.080Z,20.75
2023-05-13T19:01:36.401Z,21.65
2023-05-13T19:04:05.965Z,20.83
2023-05-13T19:06:36.370Z,19.75
2023-05-13T19:09:04.559Z,27.52
2023-05-13T19:11:34.678Z,22.60
2023-05-13T19:14:05.066Z,21.00
2023-05-13T19:16:33.129Z,20.20
2023-05-13T19:19:03.442Z,20.25
2023-05-13T19:21:33.266Z,22.52
2023-05-13T19:24:03.280Z,20.52
2023-05-13T19:26:31.437Z,22.05
2023-05-13T19:28:59.933Z,23.65
2023-05-13T19:31:28.251Z,24.88
2023-05-13T19:33:56.661Z,24.35
2023-05-13T19:36:26.403Z,18.58
2023-05-13T19:38:56.915Z,23.50
2023-05-13T19:41:25.392Z,26.70
2023-05-13T19:43:53.428Z,20.20
2023-05-13T19:46:22.041Z,18.92
2023-05-13T19:48:50.457Z,21.65
2023-05-13T19:51:19.242Z,24.10
2023-05-13T19:53:49.943Z,16.95
2023-05-13T19:56:19.761Z,20.45
2023-05-13T19:58:48.247Z,22.15
2023-05-13T20:01:18.897Z,22.02
2023-05-13T20:03:47.455Z,24.48
2023-05-13T20:06:16.572Z,18.85
2023-05-13T20:08:44.750Z,24.10
2023-05-13T20:11:12.983Z,25.45
2023-05-13T20:13:43.758Z,26.85
2023-05-13T20:16:12.238Z,21.88
2023-05-13T20:18:40.378Z,27.25
2023-05-13T20:21:08.874Z,23.35
2023-05-13T20:23:37.344Z,21.67
2023-05-13T20:26:05.455Z,21.33
2023-05-13T20:28:35.601Z,27.77
2023-05-13T20:31:06.785Z,21.75
2023-05-13T20:33:37.078Z,20.92
2023-05-13T20:36:07.448Z,22.38
2023-05-13T20:38:35.694Z,24.48
2023-05-13T20:41:03.913Z,20.52
2023-05-13T20:43:33.497Z,23.75
2023-05-13T20:46:04.078Z,20.23
2023-05-13T20:48:35.023Z,22.33
2023-05-13T20:51:05.672Z,22.77
2023-05-13T20:53:34.740Z,24.58
2023-05-13T20:56:04.984Z,33.65
2023-05-13T20:58:33.399Z,20.63
2023-05-13T21:01:03.344Z,23.92
2023-05-13T21:03:31.765Z,22.23
2023-05-13T21:06:01.467Z,23.75
2023-05-13T21:08:31.084Z,21.10
2023-05-13T21:11:00.816Z,22.40
2023-05-13T21:13:30.048Z,27.08
2023-05-13T21:15:58.055Z,18.75
2023-05-13T21:18:26.409Z,25.58
2023-05-13T21:20:54.517Z,21.88
2023-05-13T21:23:24.313Z,25.17
2023-05-13T21:25:53.523Z,22.02
2023-05-13T21:28:21.594Z,26.42
2023-05-13T21:30:49.578Z,22.63
2023-05-13T21:33:18.150Z,27.13
2023-05-13T21:35:46.369Z,28.25
2023-05-13T21:38:14.570Z,23.73
2023-05-13T21:40:47.641Z,27.40
2023-05-13T21:43:16.063Z,27.42
2023-05-13T21:45:44.184Z,21.58
2023-05-13T21:48:13.278Z,23.27
2023-05-13T21:50:45.174Z,22.23
2023-05-13T21:53:13.213Z,20.95
2023-05-13T21:55:43.058Z,22.13
2023-05-13T21:58:14.024Z,28.58
2023-05-13T22:00:42.542Z,26.05
2023-05-13T22:03:10.752Z,29.88
2023-05-13T22:05:44.057Z,24.20
2023-05-13T22:08:12.541Z,23.23
2023-05-13T22:10:41.092Z,24.38
2023-05-13T22:13:11.054Z,24.00
2023-05-13T22:15:42.874Z,30.05
2023-05-13T22:18:13.990Z,24.73
2023-05-13T22:20:42.552Z,28.13
2023-05-13T22:23:10.875Z,27.25
2023-05-13T22:25:39.391Z,24.65
2023-05-13T22:28:08.336Z,31.30
2023-05-13T22:30:37.804Z,26.60
2023-05-13T22:33:06.392Z,27.92
2023-05-13T22:35:37.232Z,28.95
2023-05-13T22:38:05.778Z,21.83
2023-05-13T22:40:34.430Z,23.77
2023-05-13T22:43:03.033Z,23.92
2023-05-13T22:45:31.659Z,23.75
2023-05-13T22:48:05.319Z,22.83
2023-05-13T22:50:35.722Z,24.88
2023-05-13T22:53:03.935Z,26.17
2023-05-13T22:55:36.336Z,23.73
2023-05-13T22:58:04.803Z,26.75
2023-05-13T23:00:34.712Z,23.75
2023-05-13T23:03:04.553Z,25.83
2023-05-13T23:05:32.985Z,31.88
2023-05-13T23:08:01.195Z,24.50
2023-05-13T23:10:30.026Z,27.08
2023-05-13T23:13:04.938Z,29.52
2023-05-13T23:15:33.106Z,26.55
2023-05-13T23:18:01.338Z,24.65
2023-05-13T23:20:31.304Z,29.42
2023-05-13T23:22:59.388Z,24.38
2023-05-13T23:25:27.719Z,24.05
2023-05-13T23:27:55.813Z,21.45
2023-05-13T23:30:26.543Z,27.02
2023-05-13T23:32:54.714Z,27.20
2023-05-13T23:35:22.803Z,21.20
2023-05-13T23:37:52.393Z,27.92
2023-05-13T23:40:22.045Z,21.48
2023-05-13T23:42:52.402Z,22.23
2023-05-13T23:45:20.909Z,24.08
2023-05-13T23:47:49.399Z,19.40
2023-05-13T23:50:19.312Z,25.90
2023-05-13T23:52:51.268Z,21.17
2023-05-13T23:55:21.286Z,24.92
2023-05-13T23:57:49.831Z,22.67
